Ironton, Ohio
Current Conditions -  °F | °C
As of 12:15 PM on Sunday 23 Nov 2014 (Local Time) from KDWU Reporting Station
Clear Clear  
Wind Chill: 64°   Ceiling: Unl
Heat Index: 64°   Visibility: 10mi
Dew Point: 39°   Wind: 10mph
Humidity: 40%   Direction: 130°SE
Pressure: 29.88"   Gusts: NA
Location:  38.54°N, 82.68°W
Report Text: KDWU 231715Z AUTO 13009KT 10SM CLR 18/04 A2988 RMK AO1
Loading
Personal Weather Stations






























Interactive Weather Map New forecast layout! Learn more

10-Day Weather Forecast

Advertisements
Track Severe Weather on mobile